sensor_id;sensor_type;location;lat;lon;timestamp;P1;durP1;ratioP1;P2;durP2;ratioP2
19113;SDS011;9689;51.052;13.772;2023-02-13T00:01:16;44.53;;;19.58;;
19113;SDS011;9689;51.052;13.772;2023-02-13T00:06:18;46.05;;;21.38;;
19113;SDS011;9689;51.052;13.772;2023-02-13T00:11:19;45.05;;;20.00;;
19113;SDS011;9689;51.052;13.772;2023-02-13T00:16:19;41.63;;;19.77;;
19113;SDS011;9689;51.052;13.772;2023-02-13T00:21:21;41.55;;;19.95;;
19113;SDS011;9689;51.052;13.772;2023-02-13T00:26:22;42.10;;;20.50;;
19113;SDS011;9689;51.052;13.772;2023-02-13T00:31:24;37.22;;;19.88;;
19113;SDS011;9689;51.052;13.772;2023-02-13T00:36:26;33.05;;;17.95;;
19113;SDS011;9689;51.052;13.772;2023-02-13T00:41:27;40.35;;;19.17;;
19113;SDS011;9689;51.052;13.772;2023-02-13T00:46:27;40.30;;;20.25;;
19113;SDS011;9689;51.052;13.772;2023-02-13T00:51:29;41.22;;;22.35;;
19113;SDS011;9689;51.052;13.772;2023-02-13T00:56:30;40.55;;;19.83;;
19113;SDS011;9689;51.052;13.772;2023-02-13T01:01:31;40.10;;;18.88;;
19113;SDS011;9689;51.052;13.772;2023-02-13T01:06:34;41.70;;;20.05;;
19113;SDS011;9689;51.052;13.772;2023-02-13T01:11:35;34.92;;;19.02;;
19113;SDS011;9689;51.052;13.772;2023-02-13T01:16:35;40.22;;;19.23;;
19113;SDS011;9689;51.052;13.772;2023-02-13T01:21:38;38.13;;;18.63;;
19113;SDS011;9689;51.052;13.772;2023-02-13T01:26:38;39.03;;;19.02;;
19113;SDS011;9689;51.052;13.772;2023-02-13T01:31:39;36.95;;;18.60;;
19113;SDS011;9689;51.052;13.772;2023-02-13T01:36:41;37.90;;;19.25;;
19113;SDS011;9689;51.052;13.772;2023-02-13T01:41:42;40.17;;;19.30;;
19113;SDS011;9689;51.052;13.772;2023-02-13T01:46:43;37.65;;;18.70;;
19113;SDS011;9689;51.052;13.772;2023-02-13T01:51:45;38.75;;;18.98;;
19113;SDS011;9689;51.052;13.772;2023-02-13T01:56:50;36.28;;;17.98;;
19113;SDS011;9689;51.052;13.772;2023-02-13T02:01:54;40.03;;;20.15;;
19113;SDS011;9689;51.052;13.772;2023-02-13T02:07:01;48.92;;;19.75;;
19113;SDS011;9689;51.052;13.772;2023-02-13T02:12:06;56.38;;;22.02;;
19113;SDS011;9689;51.052;13.772;2023-02-13T02:17:10;44.20;;;20.35;;
19113;SDS011;9689;51.052;13.772;2023-02-13T02:22:22;38.05;;;19.23;;
19113;SDS011;9689;51.052;13.772;2023-02-13T02:27:57;46.35;;;19.52;;
19113;SDS011;9689;51.052;13.772;2023-02-13T02:33:40;59.78;;;22.00;;
19113;SDS011;9689;51.052;13.772;2023-02-13T02:38:54;41.00;;;19.63;;
19113;SDS011;9689;51.052;13.772;2023-02-13T02:44:05;60.15;;;22.98;;
19113;SDS011;9689;51.052;13.772;2023-02-13T02:49:16;56.90;;;21.63;;
19113;SDS011;9689;51.052;13.772;2023-02-13T02:54:36;61.25;;;22.13;;
19113;SDS011;9689;51.052;13.772;2023-02-13T03:00:03;59.95;;;21.90;;
19113;SDS011;9689;51.052;13.772;2023-02-13T03:05:25;65.60;;;24.42;;
19113;SDS011;9689;51.052;13.772;2023-02-13T03:10:46;56.58;;;22.10;;
19113;SDS011;9689;51.052;13.772;2023-02-13T03:16:04;64.45;;;22.23;;
19113;SDS011;9689;51.052;13.772;2023-02-13T03:21:26;57.10;;;22.25;;
19113;SDS011;9689;51.052;13.772;2023-02-13T03:26:52;61.17;;;23.13;;
19113;SDS011;9689;51.052;13.772;2023-02-13T03:31:59;62.15;;;21.98;;
19113;SDS011;9689;51.052;13.772;2023-02-13T03:37:07;66.70;;;22.85;;
19113;SDS011;9689;51.052;13.772;2023-02-13T03:42:31;67.32;;;23.45;;
19113;SDS011;9689;51.052;13.772;2023-02-13T03:47:35;59.47;;;23.70;;
19113;SDS011;9689;51.052;13.772;2023-02-13T03:52:40;62.90;;;24.27;;
19113;SDS011;9689;51.052;13.772;2023-02-13T03:57:45;65.75;;;22.05;;
19113;SDS011;9689;51.052;13.772;2023-02-13T04:03:09;57.70;;;21.08;;
19113;SDS011;9689;51.052;13.772;2023-02-13T04:08:16;63.22;;;22.15;;
19113;SDS011;9689;51.052;13.772;2023-02-13T04:13:17;54.88;;;20.73;;
19113;SDS011;9689;51.052;13.772;2023-02-13T04:18:26;59.63;;;21.17;;
19113;SDS011;9689;51.052;13.772;2023-02-13T04:23:31;53.28;;;21.38;;
19113;SDS011;9689;51.052;13.772;2023-02-13T04:28:35;55.80;;;20.55;;
19113;SDS011;9689;51.052;13.772;2023-02-13T04:33:35;50.08;;;19.88;;
19113;SDS011;9689;51.052;13.772;2023-02-13T04:38:37;46.88;;;19.13;;
19113;SDS011;9689;51.052;13.772;2023-02-13T04:43:38;57.38;;;20.67;;
19113;SDS011;9689;51.052;13.772;2023-02-13T04:48:39;50.22;;;19.33;;
19113;SDS011;9689;51.052;13.772;2023-02-13T04:53:41;55.08;;;21.00;;
19113;SDS011;9689;51.052;13.772;2023-02-13T04:58:41;43.47;;;19.15;;
19113;SDS011;9689;51.052;13.772;2023-02-13T05:03:42;52.55;;;19.77;;
19113;SDS011;9689;51.052;13.772;2023-02-13T05:08:44;46.58;;;19.50;;
19113;SDS011;9689;51.052;13.772;2023-02-13T05:13:45;50.70;;;20.77;;
19113;SDS011;9689;51.052;13.772;2023-02-13T05:18:46;44.22;;;18.98;;
19113;SDS011;9689;51.052;13.772;2023-02-13T05:23:48;41.58;;;18.48;;
19113;SDS011;9689;51.052;13.772;2023-02-13T05:28:48;40.90;;;18.33;;
19113;SDS011;9689;51.052;13.772;2023-02-13T05:34:07;44.83;;;19.02;;
19113;SDS011;9689;51.052;13.772;2023-02-13T05:39:09;55.28;;;18.92;;
19113;SDS011;9689;51.052;13.772;2023-02-13T05:44:10;39.70;;;17.38;;
19113;SDS011;9689;51.052;13.772;2023-02-13T05:49:12;41.90;;;18.88;;
19113;SDS011;9689;51.052;13.772;2023-02-13T05:54:15;45.13;;;18.48;;
19113;SDS011;9689;51.052;13.772;2023-02-13T05:59:16;43.97;;;18.17;;
19113;SDS011;9689;51.052;13.772;2023-02-13T06:04:17;46.72;;;20.13;;
19113;SDS011;9689;51.052;13.772;2023-02-13T06:09:19;49.22;;;19.48;;
19113;SDS011;9689;51.052;13.772;2023-02-13T06:14:20;45.10;;;18.33;;
19113;SDS011;9689;51.052;13.772;2023-02-13T06:19:20;51.90;;;18.88;;
19113;SDS011;9689;51.052;13.772;2023-02-13T06:24:23;54.13;;;19.20;;
19113;SDS011;9689;51.052;13.772;2023-02-13T06:29:23;41.35;;;19.00;;
19113;SDS011;9689;51.052;13.772;2023-02-13T06:34:24;53.65;;;19.52;;
19113;SDS011;9689;51.052;13.772;2023-02-13T06:39:26;47.35;;;17.98;;
19113;SDS011;9689;51.052;13.772;2023-02-13T06:44:27;43.85;;;17.15;;
19113;SDS011;9689;51.052;13.772;2023-02-13T06:49:27;48.42;;;18.40;;
19113;SDS011;9689;51.052;13.772;2023-02-13T06:54:29;46.80;;;18.05;;
19113;SDS011;9689;51.052;13.772;2023-02-13T06:59:45;48.60;;;17.73;;
19113;SDS011;9689;51.052;13.772;2023-02-13T07:04:45;49.40;;;17.95;;
19113;SDS011;9689;51.052;13.772;2023-02-13T07:09:48;52.45;;;19.00;;
19113;SDS011;9689;51.052;13.772;2023-02-13T07:14:48;47.80;;;18.13;;
19113;SDS011;9689;51.052;13.772;2023-02-13T07:19:49;55.67;;;18.80;;
19113;SDS011;9689;51.052;13.772;2023-02-13T07:24:51;53.75;;;19.27;;
19113;SDS011;9689;51.052;13.772;2023-02-13T07:29:52;51.35;;;18.60;;
19113;SDS011;9689;51.052;13.772;2023-02-13T07:34:53;50.17;;;18.88;;
19113;SDS011;9689;51.052;13.772;2023-02-13T07:40:02;53.25;;;19.48;;
19113;SDS011;9689;51.052;13.772;2023-02-13T07:45:05;50.80;;;19.40;;
19113;SDS011;9689;51.052;13.772;2023-02-13T07:50:07;59.70;;;18.98;;
19113;SDS011;9689;51.052;13.772;2023-02-13T07:55:09;51.10;;;17.65;;
19113;SDS011;9689;51.052;13.772;2023-02-13T08:00:11;51.33;;;18.65;;
19113;SDS011;9689;51.052;13.772;2023-02-13T08:05:13;54.08;;;19.52;;
19113;SDS011;9689;51.052;13.772;2023-02-13T08:10:16;54.90;;;19.80;;
19113;SDS011;9689;51.052;13.772;2023-02-13T08:15:34;57.95;;;20.80;;
19113;SDS011;9689;51.052;13.772;2023-02-13T08:20:35;57.47;;;18.38;;
19113;SDS011;9689;51.052;13.772;2023-02-13T08:25:37;55.47;;;19.08;;
19113;SDS011;9689;51.052;13.772;2023-02-13T08:30:38;48.20;;;17.40;;
19113;SDS011;9689;51.052;13.772;2023-02-13T08:35:39;45.35;;;18.52;;
19113;SDS011;9689;51.052;13.772;2023-02-13T08:40:41;44.83;;;16.98;;
19113;SDS011;9689;51.052;13.772;2023-02-13T08:45:42;44.03;;;17.10;;
19113;SDS011;9689;51.052;13.772;2023-02-13T08:50:42;42.35;;;15.75;;
19113;SDS011;9689;51.052;13.772;2023-02-13T08:55:51;38.35;;;16.10;;
19113;SDS011;9689;51.052;13.772;2023-02-13T09:00:52;41.05;;;15.93;;
19113;SDS011;9689;51.052;13.772;2023-02-13T09:05:53;34.22;;;14.48;;
19113;SDS011;9689;51.052;13.772;2023-02-13T09:11:00;35.28;;;14.27;;
19113;SDS011;9689;51.052;13.772;2023-02-13T09:16:03;29.48;;;13.70;;
19113;SDS011;9689;51.052;13.772;2023-02-13T09:21:05;33.35;;;15.18;;
19113;SDS011;9689;51.052;13.772;2023-02-13T09:26:09;33.67;;;15.30;;
19113;SDS011;9689;51.052;13.772;2023-02-13T09:31:15;32.10;;;13.30;;
19113;SDS011;9689;51.052;13.772;2023-02-13T09:36:18;34.35;;;14.93;;
19113;SDS011;9689;51.052;13.772;2023-02-13T09:41:22;38.88;;;14.65;;
19113;SDS011;9689;51.052;13.772;2023-02-13T09:46:25;31.50;;;13.88;;
19113;SDS011;9689;51.052;13.772;2023-02-13T09:51:29;36.28;;;14.15;;
19113;SDS011;9689;51.052;13.772;2023-02-13T09:56:36;30.38;;;14.00;;
19113;SDS011;9689;51.052;13.772;2023-02-13T10:01:40;33.45;;;14.43;;
19113;SDS011;9689;51.052;13.772;2023-02-13T10:06:45;31.33;;;13.65;;
19113;SDS011;9689;51.052;13.772;2023-02-13T10:11:59;26.27;;;12.88;;
19113;SDS011;9689;51.052;13.772;2023-02-13T10:17:12;25.73;;;12.98;;
19113;SDS011;9689;51.052;13.772;2023-02-13T10:22:18;28.98;;;12.98;;
19113;SDS011;9689;51.052;13.772;2023-02-13T10:27:26;27.38;;;12.43;;
19113;SDS011;9689;51.052;13.772;2023-02-13T10:32:35;27.23;;;13.32;;
19113;SDS011;9689;51.052;13.772;2023-02-13T10:37:41;25.67;;;12.27;;
19113;SDS011;9689;51.052;13.772;2023-02-13T10:42:44;29.77;;;12.13;;
19113;SDS011;9689;51.052;13.772;2023-02-13T10:47:55;21.85;;;10.93;;
19113;SDS011;9689;51.052;13.772;2023-02-13T10:53:10;21.92;;;10.73;;
19113;SDS011;9689;51.052;13.772;2023-02-13T10:58:17;22.52;;;10.02;;
19113;SDS011;9689;51.052;13.772;2023-02-13T11:03:22;16.02;;;9.07;;
19113;SDS011;9689;51.052;13.772;2023-02-13T11:08:25;15.35;;;9.05;;
19113;SDS011;9689;51.052;13.772;2023-02-13T11:13:31;17.52;;;9.02;;
19113;SDS011;9689;51.052;13.772;2023-02-13T11:18:32;17.52;;;8.68;;
19113;SDS011;9689;51.052;13.772;2023-02-13T11:23:36;16.48;;;8.55;;
19113;SDS011;9689;51.052;13.772;2023-02-13T11:28:47;13.35;;;7.82;;
19113;SDS011;9689;51.052;13.772;2023-02-13T11:33:53;12.57;;;7.38;;
19113;SDS011;9689;51.052;13.772;2023-02-13T11:38:57;14.50;;;7.75;;
19113;SDS011;9689;51.052;13.772;2023-02-13T11:44:01;14.90;;;8.18;;
19113;SDS011;9689;51.052;13.772;2023-02-13T11:49:04;14.35;;;8.52;;
19113;SDS011;9689;51.052;13.772;2023-02-13T11:59:31;14.45;;;8.73;;
19113;SDS011;9689;51.052;13.772;2023-02-13T12:04:38;14.15;;;8.25;;
19113;SDS011;9689;51.052;13.772;2023-02-13T12:09:39;12.25;;;7.28;;
19113;SDS011;9689;51.052;13.772;2023-02-13T12:14:42;12.65;;;7.20;;
19113;SDS011;9689;51.052;13.772;2023-02-13T12:19:46;12.65;;;7.68;;
19113;SDS011;9689;51.052;13.772;2023-02-13T12:30:29;12.27;;;6.70;;
19113;SDS011;9689;51.052;13.772;2023-02-13T12:35:46;11.57;;;7.30;;
19113;SDS011;9689;51.052;13.772;2023-02-13T12:41:02;11.48;;;7.80;;
19113;SDS011;9689;51.052;13.772;2023-02-13T12:46:15;13.05;;;7.45;;
19113;SDS011;9689;51.052;13.772;2023-02-13T12:51:27;13.70;;;7.57;;
19113;SDS011;9689;51.052;13.772;2023-02-13T12:56:44;10.95;;;6.85;;
19113;SDS011;9689;51.052;13.772;2023-02-13T13:02:03;9.68;;;6.68;;
19113;SDS011;9689;51.052;13.772;2023-02-13T13:07:37;10.52;;;6.80;;
19113;SDS011;9689;51.052;13.772;2023-02-13T13:12:53;11.57;;;6.80;;
19113;SDS011;9689;51.052;13.772;2023-02-13T13:18:14;9.90;;;6.05;;
19113;SDS011;9689;51.052;13.772;2023-02-13T13:23:28;9.65;;;5.38;;
19113;SDS011;9689;51.052;13.772;2023-02-13T13:28:36;11.55;;;5.60;;
19113;SDS011;9689;51.052;13.772;2023-02-13T13:33:42;10.30;;;6.47;;
19113;SDS011;9689;51.052;13.772;2023-02-13T13:38:48;12.27;;;6.53;;
19113;SDS011;9689;51.052;13.772;2023-02-13T13:44:02;9.90;;;6.30;;
19113;SDS011;9689;51.052;13.772;2023-02-13T13:49:23;11.18;;;6.32;;
19113;SDS011;9689;51.052;13.772;2023-02-13T13:54:33;13.40;;;7.22;;
19113;SDS011;9689;51.052;13.772;2023-02-13T14:05:20;9.77;;;6.47;;
19113;SDS011;9689;51.052;13.772;2023-02-13T14:16:08;7.93;;;5.22;;
19113;SDS011;9689;51.052;13.772;2023-02-13T14:21:11;9.68;;;5.90;;
19113;SDS011;9689;51.052;13.772;2023-02-13T14:26:35;9.48;;;6.05;;
19113;SDS011;9689;51.052;13.772;2023-02-13T14:31:38;14.00;;;6.90;;
19113;SDS011;9689;51.052;13.772;2023-02-13T14:36:44;13.00;;;7.05;;
19113;SDS011;9689;51.052;13.772;2023-02-13T14:41:56;10.77;;;7.32;;
19113;SDS011;9689;51.052;13.772;2023-02-13T14:46:59;13.20;;;7.18;;
19113;SDS011;9689;51.052;13.772;2023-02-13T14:52:05;12.50;;;7.47;;
19113;SDS011;9689;51.052;13.772;2023-02-13T14:57:09;15.63;;;8.50;;
19113;SDS011;9689;51.052;13.772;2023-02-13T15:02:16;14.23;;;8.13;;
19113;SDS011;9689;51.052;13.772;2023-02-13T15:07:23;16.38;;;10.25;;
19113;SDS011;9689;51.052;13.772;2023-02-13T15:12:28;17.33;;;9.02;;
19113;SDS011;9689;51.052;13.772;2023-02-13T15:17:30;18.40;;;9.32;;
19113;SDS011;9689;51.052;13.772;2023-02-13T15:22:38;20.58;;;8.70;;
19113;SDS011;9689;51.052;13.772;2023-02-13T15:27:44;18.00;;;10.27;;
19113;SDS011;9689;51.052;13.772;2023-02-13T15:32:51;18.13;;;10.50;;
19113;SDS011;9689;51.052;13.772;2023-02-13T15:37:55;18.70;;;10.75;;
19113;SDS011;9689;51.052;13.772;2023-02-13T15:42:56;18.13;;;10.45;;
19113;SDS011;9689;51.052;13.772;2023-02-13T15:47:57;17.77;;;10.18;;
19113;SDS011;9689;51.052;13.772;2023-02-13T15:53:02;21.92;;;11.90;;
19113;SDS011;9689;51.052;13.772;2023-02-13T15:58:04;21.48;;;10.82;;
19113;SDS011;9689;51.052;13.772;2023-02-13T16:03:12;19.95;;;11.27;;
19113;SDS011;9689;51.052;13.772;2023-02-13T16:08:25;20.52;;;11.40;;
19113;SDS011;9689;51.052;13.772;2023-02-13T16:13:27;20.70;;;10.90;;
19113;SDS011;9689;51.052;13.772;2023-02-13T16:18:28;19.95;;;11.65;;
19113;SDS011;9689;51.052;13.772;2023-02-13T16:23:30;18.67;;;10.55;;
19113;SDS011;9689;51.052;13.772;2023-02-13T16:28:31;22.63;;;11.15;;
19113;SDS011;9689;51.052;13.772;2023-02-13T16:33:33;20.13;;;11.32;;
19113;SDS011;9689;51.052;13.772;2023-02-13T16:38:38;22.83;;;11.55;;
19113;SDS011;9689;51.052;13.772;2023-02-13T16:43:42;21.58;;;10.98;;
19113;SDS011;9689;51.052;13.772;2023-02-13T16:48:44;19.80;;;11.43;;
19113;SDS011;9689;51.052;13.772;2023-02-13T16:53:58;21.25;;;11.73;;
19113;SDS011;9689;51.052;13.772;2023-02-13T16:59:04;25.58;;;11.77;;
19113;SDS011;9689;51.052;13.772;2023-02-13T17:04:20;25.15;;;12.70;;
19113;SDS011;9689;51.052;13.772;2023-02-13T17:09:23;24.20;;;12.48;;
19113;SDS011;9689;51.052;13.772;2023-02-13T17:14:24;20.27;;;11.82;;
19113;SDS011;9689;51.052;13.772;2023-02-13T17:19:25;23.63;;;13.05;;
19113;SDS011;9689;51.052;13.772;2023-02-13T17:24:29;22.00;;;12.70;;
19113;SDS011;9689;51.052;13.772;2023-02-13T17:29:30;26.38;;;13.90;;
19113;SDS011;9689;51.052;13.772;2023-02-13T17:34:31;24.90;;;14.05;;
19113;SDS011;9689;51.052;13.772;2023-02-13T17:39:33;25.02;;;14.48;;
19113;SDS011;9689;51.052;13.772;2023-02-13T17:44:33;27.15;;;14.85;;
19113;SDS011;9689;51.052;13.772;2023-02-13T17:49:34;24.17;;;13.65;;
19113;SDS011;9689;51.052;13.772;2023-02-13T17:54:36;25.02;;;14.57;;
19113;SDS011;9689;51.052;13.772;2023-02-13T17:59:37;27.83;;;13.98;;
19113;SDS011;9689;51.052;13.772;2023-02-13T18:04:38;24.67;;;13.95;;
19113;SDS011;9689;51.052;13.772;2023-02-13T18:09:40;32.45;;;15.32;;
19113;SDS011;9689;51.052;13.772;2023-02-13T18:14:41;28.70;;;14.88;;
19113;SDS011;9689;51.052;13.772;2023-02-13T18:19:42;30.67;;;15.48;;
19113;SDS011;9689;51.052;13.772;2023-02-13T18:24:44;29.50;;;15.43;;
19113;SDS011;9689;51.052;13.772;2023-02-13T18:29:46;27.40;;;14.55;;
19113;SDS011;9689;51.052;13.772;2023-02-13T18:34:47;30.52;;;16.40;;
19113;SDS011;9689;51.052;13.772;2023-02-13T18:39:49;30.80;;;16.38;;
19113;SDS011;9689;51.052;13.772;2023-02-13T18:44:50;27.58;;;15.48;;
19113;SDS011;9689;51.052;13.772;2023-02-13T18:49:51;31.77;;;16.80;;
19113;SDS011;9689;51.052;13.772;2023-02-13T18:54:53;30.48;;;16.17;;
19113;SDS011;9689;51.052;13.772;2023-02-13T18:59:54;33.97;;;16.92;;
19113;SDS011;9689;51.052;13.772;2023-02-13T19:04:54;37.08;;;17.60;;
19113;SDS011;9689;51.052;13.772;2023-02-13T19:09:57;33.65;;;16.95;;
19113;SDS011;9689;51.052;13.772;2023-02-13T19:14:57;40.03;;;18.10;;
19113;SDS011;9689;51.052;13.772;2023-02-13T19:19:58;37.28;;;18.00;;
19113;SDS011;9689;51.052;13.772;2023-02-13T19:25:00;37.17;;;17.55;;
19113;SDS011;9689;51.052;13.772;2023-02-13T19:30:01;34.42;;;18.55;;
19113;SDS011;9689;51.052;13.772;2023-02-13T19:35:03;33.20;;;17.75;;
19113;SDS011;9689;51.052;13.772;2023-02-13T19:40:06;36.83;;;18.30;;
19113;SDS011;9689;51.052;13.772;2023-02-13T19:45:08;37.20;;;18.73;;
19113;SDS011;9689;51.052;13.772;2023-02-13T19:50:09;36.30;;;18.67;;
19113;SDS011;9689;51.052;13.772;2023-02-13T19:55:11;36.30;;;17.98;;
19113;SDS011;9689;51.052;13.772;2023-02-13T20:00:13;35.78;;;19.55;;
19113;SDS011;9689;51.052;13.772;2023-02-13T20:05:15;34.78;;;18.13;;
19113;SDS011;9689;51.052;13.772;2023-02-13T20:10:17;37.67;;;18.98;;
19113;SDS011;9689;51.052;13.772;2023-02-13T20:15:18;40.38;;;19.25;;
19113;SDS011;9689;51.052;13.772;2023-02-13T20:20:19;38.38;;;19.10;;
19113;SDS011;9689;51.052;13.772;2023-02-13T20:25:21;38.13;;;19.80;;
19113;SDS011;9689;51.052;13.772;2023-02-13T20:30:23;38.25;;;17.88;;
19113;SDS011;9689;51.052;13.772;2023-02-13T20:35:24;40.95;;;19.23;;
19113;SDS011;9689;51.052;13.772;2023-02-13T20:40:26;40.42;;;17.67;;
19113;SDS011;9689;51.052;13.772;2023-02-13T20:45:27;34.75;;;18.92;;
19113;SDS011;9689;51.052;13.772;2023-02-13T20:50:28;37.75;;;18.55;;
19113;SDS011;9689;51.052;13.772;2023-02-13T20:55:30;39.03;;;19.48;;
19113;SDS011;9689;51.052;13.772;2023-02-13T21:00:31;39.83;;;19.35;;
19113;SDS011;9689;51.052;13.772;2023-02-13T21:05:31;34.85;;;18.08;;
19113;SDS011;9689;51.052;13.772;2023-02-13T21:10:35;34.03;;;18.02;;
19113;SDS011;9689;51.052;13.772;2023-02-13T21:15:36;39.25;;;18.77;;
19113;SDS011;9689;51.052;13.772;2023-02-13T21:20:37;35.88;;;18.88;;
19113;SDS011;9689;51.052;13.772;2023-02-13T21:25:39;36.30;;;18.38;;
19113;SDS011;9689;51.052;13.772;2023-02-13T21:30:40;37.38;;;18.73;;
19113;SDS011;9689;51.052;13.772;2023-02-13T21:35:41;41.22;;;18.88;;
19113;SDS011;9689;51.052;13.772;2023-02-13T21:40:43;37.28;;;19.25;;
19113;SDS011;9689;51.052;13.772;2023-02-13T21:45:44;37.55;;;18.38;;
19113;SDS011;9689;51.052;13.772;2023-02-13T21:50:45;35.72;;;17.88;;
19113;SDS011;9689;51.052;13.772;2023-02-13T21:55:47;38.70;;;18.77;;
19113;SDS011;9689;51.052;13.772;2023-02-13T22:00:47;34.72;;;19.17;;
19113;SDS011;9689;51.052;13.772;2023-02-13T22:05:49;34.63;;;18.27;;
19113;SDS011;9689;51.052;13.772;2023-02-13T22:10:54;37.58;;;18.95;;
19113;SDS011;9689;51.052;13.772;2023-02-13T22:15:57;37.97;;;20.25;;
19113;SDS011;9689;51.052;13.772;2023-02-13T22:21:02;44.70;;;20.67;;
19113;SDS011;9689;51.052;13.772;2023-02-13T22:26:05;33.10;;;18.02;;
19113;SDS011;9689;51.052;13.772;2023-02-13T22:31:07;37.55;;;18.85;;
19113;SDS011;9689;51.052;13.772;2023-02-13T22:36:09;44.80;;;20.17;;
19113;SDS011;9689;51.052;13.772;2023-02-13T22:41:12;41.17;;;19.30;;
19113;SDS011;9689;51.052;13.772;2023-02-13T22:46:15;41.95;;;20.15;;
19113;SDS011;9689;51.052;13.772;2023-02-13T22:51:18;41.92;;;19.80;;
19113;SDS011;9689;51.052;13.772;2023-02-13T22:56:22;41.38;;;20.20;;
19113;SDS011;9689;51.052;13.772;2023-02-13T23:01:24;37.63;;;19.05;;
19113;SDS011;9689;51.052;13.772;2023-02-13T23:06:27;41.13;;;20.35;;
19113;SDS011;9689;51.052;13.772;2023-02-13T23:11:29;40.20;;;18.92;;
19113;SDS011;9689;51.052;13.772;2023-02-13T23:16:47;41.13;;;19.83;;
19113;SDS011;9689;51.052;13.772;2023-02-13T23:22:05;37.83;;;19.30;;
19113;SDS011;9689;51.052;13.772;2023-02-13T23:27:07;36.88;;;19.27;;
19113;SDS011;9689;51.052;13.772;2023-02-13T23:32:08;39.65;;;19.77;;
19113;SDS011;9689;51.052;13.772;2023-02-13T23:37:09;42.67;;;19.73;;
19113;SDS011;9689;51.052;13.772;2023-02-13T23:42:11;41.38;;;19.88;;
19113;SDS011;9689;51.052;13.772;2023-02-13T23:47:11;37.97;;;19.42;;
19113;SDS011;9689;51.052;13.772;2023-02-13T23:52:12;36.50;;;18.50;;
19113;SDS011;9689;51.052;13.772;2023-02-13T23:57:14;42.92;;;20.17;;
